createdAt,value
2023-05-12T00:01:31.894Z,15.90
2023-05-12T00:03:59.081Z,15.80
2023-05-12T00:06:25.927Z,15.80
2023-05-12T00:08:52.599Z,15.70
2023-05-12T00:11:19.355Z,15.70
2023-05-12T00:13:46.116Z,15.70
2023-05-12T00:16:12.963Z,15.70
2023-05-12T00:18:39.744Z,15.60
2023-05-12T00:21:06.436Z,15.60
2023-05-12T00:23:33.164Z,15.60
2023-05-12T00:26:00.307Z,15.50
2023-05-12T00:28:27.061Z,15.40
2023-05-12T00:30:54.046Z,15.40
2023-05-12T00:33:22.418Z,15.40
2023-05-12T00:35:51.816Z,15.30
2023-05-12T00:38:18.458Z,15.30
2023-05-12T00:40:45.237Z,15.30
2023-05-12T00:43:11.919Z,15.20
2023-05-12T00:45:39.015Z,15.20
2023-05-12T00:48:06.896Z,15.10
2023-05-12T00:50:34.247Z,15.10
2023-05-12T00:53:01.846Z,15.10
2023-05-12T00:55:29.961Z,15.00
2023-05-12T00:57:56.968Z,15.00
2023-05-12T01:00:26.548Z,15.00
2023-05-12T01:02:53.617Z,15.00
2023-05-12T01:05:20.546Z,14.90
2023-05-12T01:07:48.193Z,14.90
2023-05-12T01:10:22.155Z,14.90
2023-05-12T01:12:49.009Z,14.90
2023-05-12T01:15:16.867Z,14.80
2023-05-12T01:17:50.344Z,14.80
2023-05-12T01:20:20.765Z,14.80
2023-05-12T01:22:49.195Z,14.80
2023-05-12T01:25:19.389Z,14.90
2023-05-12T01:27:48.309Z,14.90
2023-05-12T01:30:18.215Z,14.90
2023-05-12T01:32:45.249Z,14.80
2023-05-12T01:35:12.008Z,14.80
2023-05-12T01:37:38.745Z,14.80
2023-05-12T01:40:07.825Z,14.80
2023-05-12T01:42:34.528Z,14.70
2023-05-12T01:45:01.270Z,14.70
2023-05-12T01:47:28.002Z,14.70
2023-05-12T01:49:54.724Z,14.70
2023-05-12T01:52:21.421Z,14.70
2023-05-12T01:54:48.113Z,14.60
2023-05-12T01:57:16.292Z,14.60
2023-05-12T01:59:43.277Z,14.60
2023-05-12T02:02:11.401Z,14.60
2023-05-12T02:04:38.336Z,14.50
2023-05-12T02:07:07.568Z,14.50
2023-05-12T02:09:34.257Z,14.50
2023-05-12T02:12:00.983Z,14.40
2023-05-12T02:14:27.724Z,14.30
2023-05-12T02:16:54.821Z,14.30
2023-05-12T02:19:21.630Z,14.30
2023-05-12T02:21:48.911Z,14.20
2023-05-12T02:24:16.898Z,14.20
2023-05-12T02:26:43.763Z,14.30
2023-05-12T02:29:11.530Z,14.20
2023-05-12T02:31:38.326Z,14.10
2023-05-12T02:34:06.651Z,14.10
2023-05-12T02:36:35.926Z,14.10
2023-05-12T02:39:02.642Z,14.10
2023-05-12T02:41:29.401Z,14.00
2023-05-12T02:43:56.036Z,14.00
2023-05-12T02:46:22.805Z,13.90
2023-05-12T02:48:49.498Z,13.90
2023-05-12T02:51:16.195Z,13.90
2023-05-12T02:53:42.924Z,13.70
2023-05-12T02:56:09.616Z,13.70
2023-05-12T02:58:36.315Z,13.70
2023-05-12T03:01:10.817Z,13.70
2023-05-12T03:03:39.746Z,13.70
2023-05-12T03:06:07.187Z,13.60
2023-05-12T03:08:35.068Z,13.60
2023-05-12T03:11:01.880Z,13.50
2023-05-12T03:13:29.628Z,13.50
2023-05-12T03:15:58.613Z,13.40
2023-05-12T03:18:27.621Z,13.40
2023-05-12T03:20:58.202Z,13.30
2023-05-12T03:23:28.344Z,13.30
2023-05-12T03:25:55.263Z,13.30
2023-05-12T03:28:21.902Z,13.30
2023-05-12T03:30:48.601Z,13.30
2023-05-12T03:33:15.217Z,13.30
2023-05-12T03:35:41.919Z,13.30
2023-05-12T03:38:08.581Z,13.20
2023-05-12T03:40:35.302Z,13.20
2023-05-12T03:43:02.040Z,13.20
2023-05-12T03:45:28.715Z,13.20
2023-05-12T03:47:55.505Z,13.20
2023-05-12T03:50:22.377Z,13.20
2023-05-12T03:52:50.367Z,13.20
2023-05-12T03:55:17.132Z,13.10
2023-05-12T03:57:45.056Z,13.10
2023-05-12T04:00:12.312Z,13.10
2023-05-12T04:02:42.800Z,13.10
2023-05-12T04:05:09.731Z,13.10
2023-05-12T04:07:36.351Z,13.10
2023-05-12T04:10:03.520Z,13.10
2023-05-12T04:12:30.234Z,13.10
2023-05-12T04:14:57.452Z,13.00
2023-05-12T04:17:24.162Z,13.00
2023-05-12T04:19:50.847Z,13.10
2023-05-12T04:22:17.488Z,13.10
2023-05-12T04:24:45.180Z,13.10
2023-05-12T04:27:15.768Z,13.10
2023-05-12T04:29:43.840Z,13.10
2023-05-12T04:32:10.601Z,13.10
2023-05-12T04:34:41.903Z,13.10
2023-05-12T04:37:12.452Z,13.10
2023-05-12T04:39:40.164Z,13.20
2023-05-12T04:42:06.903Z,13.20
2023-05-12T04:44:33.584Z,13.20
2023-05-12T04:47:00.341Z,13.20
2023-05-12T04:49:27.011Z,13.20
2023-05-12T04:51:53.673Z,13.20
2023-05-12T04:54:20.387Z,13.20
2023-05-12T04:56:47.103Z,13.30
2023-05-12T04:59:13.940Z,13.30
2023-05-12T05:01:40.970Z,13.40
2023-05-12T05:04:09.151Z,13.40
2023-05-12T05:06:35.831Z,13.40
2023-05-12T05:09:02.539Z,13.50
2023-05-12T05:11:29.265Z,13.60
2023-05-12T05:13:55.993Z,13.60
2023-05-12T05:16:24.308Z,13.70
2023-05-12T05:18:51.397Z,13.80
2023-05-12T05:21:28.141Z,13.80
2023-05-12T05:23:56.018Z,13.80
2023-05-12T05:26:25.027Z,13.90
2023-05-12T05:28:55.210Z,14.00
2023-05-12T05:31:25.082Z,14.00
2023-05-12T05:33:54.187Z,14.10
2023-05-12T05:36:23.223Z,14.20
2023-05-12T05:38:49.940Z,14.20
2023-05-12T05:41:16.625Z,14.30
2023-05-12T05:43:43.349Z,14.30
2023-05-12T05:46:10.056Z,14.30
2023-05-12T05:48:36.842Z,14.40
2023-05-12T05:51:03.905Z,14.40
2023-05-12T05:53:30.880Z,14.40
2023-05-12T05:55:57.661Z,14.40
2023-05-12T05:58:24.635Z,14.50
2023-05-12T06:00:51.525Z,14.50
2023-05-12T06:03:20.811Z,14.50
2023-05-12T06:05:49.737Z,14.60
2023-05-12T06:08:17.154Z,14.60
2023-05-12T06:10:45.429Z,14.60
2023-05-12T06:13:12.293Z,14.60
2023-05-12T06:15:39.481Z,14.70
2023-05-12T06:18:06.252Z,14.70
2023-05-12T06:20:33.576Z,14.70
2023-05-12T06:23:00.844Z,14.70
2023-05-12T06:25:27.634Z,14.80
2023-05-12T06:27:54.344Z,14.80
2023-05-12T06:30:21.223Z,14.80
2023-05-12T06:32:47.935Z,14.80
2023-05-12T06:35:14.653Z,14.90
2023-05-12T06:37:41.490Z,14.90
2023-05-12T06:40:08.551Z,15.00
2023-05-12T06:42:35.259Z,15.00
2023-05-12T06:45:02.035Z,15.10
2023-05-12T06:47:29.093Z,15.10
2023-05-12T06:49:56.737Z,15.10
2023-05-12T06:52:25.706Z,15.20
2023-05-12T06:54:54.908Z,15.20
2023-05-12T06:57:21.691Z,15.30
2023-05-12T06:59:48.517Z,15.30
2023-05-12T07:02:15.243Z,15.30
2023-05-12T07:04:41.979Z,15.40
2023-05-12T07:07:08.768Z,15.40
2023-05-12T07:09:35.539Z,15.50
2023-05-12T07:12:02.285Z,15.50
2023-05-12T07:14:28.996Z,15.60
2023-05-12T07:16:55.936Z,15.60
2023-05-12T07:19:22.709Z,15.70
2023-05-12T07:21:49.507Z,15.70
2023-05-12T07:24:20.696Z,15.70
2023-05-12T07:26:49.060Z,15.80
2023-05-12T07:29:16.578Z,15.80
2023-05-12T07:31:45.124Z,15.80
2023-05-12T07:34:12.148Z,15.90
2023-05-12T07:36:40.084Z,15.90
2023-05-12T07:39:09.899Z,15.90
2023-05-12T07:41:36.692Z,16.00
2023-05-12T07:44:03.877Z,16.00
2023-05-12T07:46:30.631Z,16.10
2023-05-12T07:48:57.310Z,16.10
2023-05-12T07:51:24.146Z,16.10
2023-05-12T07:53:50.794Z,16.20
2023-05-12T07:56:17.495Z,16.20
2023-05-12T07:58:46.059Z,16.30
2023-05-12T08:01:14.092Z,16.30
2023-05-12T08:03:40.994Z,16.40
2023-05-12T08:06:07.840Z,16.40
2023-05-12T08:08:34.753Z,16.50
2023-05-12T08:11:03.112Z,16.60
2023-05-12T08:13:29.897Z,16.60
2023-05-12T08:15:58.081Z,16.70
2023-05-12T08:18:24.976Z,16.70
2023-05-12T08:20:53.100Z,16.80
2023-05-12T08:23:20.983Z,16.80
2023-05-12T08:25:47.696Z,16.90
2023-05-12T08:28:14.972Z,16.90
2023-05-12T08:30:42.317Z,17.00
2023-05-12T08:33:09.077Z,17.10
2023-05-12T08:35:35.916Z,17.10
2023-05-12T08:38:02.747Z,17.20
2023-05-12T08:40:31.422Z,17.30
2023-05-12T08:43:18.356Z,17.30
2023-05-12T08:45:46.950Z,17.40
2023-05-12T08:48:15.235Z,17.40
2023-05-12T08:50:43.900Z,17.50
2023-05-12T08:53:11.428Z,17.50
2023-05-12T08:55:41.285Z,17.60
2023-05-12T08:58:09.629Z,17.60
2023-05-12T09:00:39.243Z,17.60
2023-05-12T09:03:06.722Z,17.70
2023-05-12T09:05:34.245Z,17.70
2023-05-12T09:08:01.566Z,17.80
2023-05-12T09:13:32.407Z,17.80
2023-05-12T09:16:01.934Z,17.90
2023-05-12T09:18:45.673Z,17.90
2023-05-12T09:21:12.625Z,18.00
2023-05-12T09:23:39.384Z,18.00
2023-05-12T09:26:07.417Z,18.00
2023-05-12T09:28:38.096Z,18.10
2023-05-12T09:31:24.964Z,18.10
2023-05-12T09:33:52.243Z,18.20
2023-05-12T09:36:23.365Z,18.20
2023-05-12T09:39:04.033Z,18.30
2023-05-12T09:41:31.687Z,18.30
2023-05-12T09:43:59.617Z,18.30
2023-05-12T09:46:26.456Z,18.30
2023-05-12T09:48:56.408Z,18.40
2023-05-12T09:51:23.650Z,18.40
2023-05-12T09:53:50.424Z,18.50
2023-05-12T09:56:21.597Z,18.50
2023-05-12T09:58:51.540Z,18.50
2023-05-12T10:01:23.404Z,18.60
2023-05-12T10:03:53.589Z,18.60
2023-05-12T10:06:37.199Z,18.60
2023-05-12T10:09:25.262Z,18.70
2023-05-12T10:11:54.019Z,18.70
2023-05-12T10:14:22.922Z,18.70
2023-05-12T10:16:51.885Z,18.80
2023-05-12T10:19:20.371Z,18.80
2023-05-12T10:21:49.449Z,18.80
2023-05-12T10:24:16.616Z,18.90
2023-05-12T10:26:45.073Z,18.90
2023-05-12T10:29:15.160Z,18.90
2023-05-12T10:31:53.718Z,19.00
2023-05-12T10:34:23.528Z,19.00
2023-05-12T10:36:51.976Z,19.00
2023-05-12T10:39:28.850Z,19.10
2023-05-12T10:42:23.712Z,19.10
2023-05-12T10:44:53.217Z,19.20
2023-05-12T10:47:36.368Z,19.20
2023-05-12T10:50:03.376Z,19.30
2023-05-12T10:52:30.274Z,19.30
2023-05-12T10:55:01.494Z,19.40
2023-05-12T10:57:28.611Z,19.50
2023-05-12T11:00:01.065Z,19.60
2023-05-12T11:02:30.765Z,19.60
2023-05-12T11:05:00.903Z,19.70
2023-05-12T11:07:35.250Z,19.80
2023-05-12T11:10:05.868Z,19.80
2023-05-12T11:12:35.554Z,19.90
2023-05-12T11:15:04.795Z,19.90
2023-05-12T11:17:44.334Z,20.00
2023-05-12T11:20:23.138Z,20.10
2023-05-12T11:22:59.180Z,20.20
2023-05-12T11:25:27.625Z,20.40
2023-05-12T11:27:54.612Z,20.50
2023-05-12T11:30:21.569Z,20.60
2023-05-12T11:32:48.591Z,20.70
2023-05-12T11:35:20.635Z,20.80
2023-05-12T11:37:49.882Z,20.90
2023-05-12T11:40:21.538Z,21.00
2023-05-12T11:43:08.978Z,21.10
2023-05-12T11:45:37.107Z,21.20
2023-05-12T11:48:09.356Z,21.20
2023-05-12T11:50:42.768Z,21.40
2023-05-12T11:53:16.218Z,21.60
2023-05-12T11:55:53.793Z,21.90
2023-05-12T11:58:23.229Z,22.00
2023-05-12T12:00:50.095Z,22.30
2023-05-12T12:03:17.069Z,22.50
2023-05-12T12:05:58.087Z,22.80
2023-05-12T12:08:24.858Z,23.10
2023-05-12T12:10:51.708Z,23.30
2023-05-12T12:13:22.938Z,23.50
2023-05-12T12:15:50.642Z,23.50
2023-05-12T12:18:17.835Z,23.50
2023-05-12T12:20:46.207Z,23.80
2023-05-12T12:23:12.898Z,24.10
2023-05-12T12:25:39.527Z,24.30
2023-05-12T12:28:06.292Z,24.50
2023-05-12T12:30:33.933Z,24.90
2023-05-12T12:33:02.127Z,25.10
2023-05-12T12:35:28.918Z,25.20
2023-05-12T12:37:55.649Z,25.20
2023-05-12T12:40:22.513Z,25.50
2023-05-12T12:42:49.265Z,25.60
2023-05-12T12:45:17.010Z,25.90
2023-05-12T12:47:45.375Z,26.10
2023-05-12T12:50:12.218Z,26.20
2023-05-12T12:52:38.937Z,26.30
2023-05-12T12:55:11.125Z,26.50
2023-05-12T12:57:38.018Z,26.70
2023-05-12T13:00:05.274Z,26.80
2023-05-12T13:02:32.189Z,26.90
2023-05-12T13:04:58.954Z,26.90
2023-05-12T13:07:25.721Z,27.10
2023-05-12T13:09:53.567Z,27.30
2023-05-12T13:12:20.368Z,27.50
2023-05-12T13:14:47.040Z,27.70
2023-05-12T13:17:13.750Z,27.90
2023-05-12T13:19:40.493Z,28.00
2023-05-12T13:22:07.203Z,27.90
2023-05-12T13:24:33.976Z,27.70
2023-05-12T13:27:01.008Z,27.80
2023-05-12T13:29:27.726Z,28.00
2023-05-12T13:31:54.515Z,28.20
2023-05-12T13:34:23.726Z,28.50
2023-05-12T13:36:51.802Z,28.70
2023-05-12T13:39:19.676Z,28.90
2023-05-12T13:41:46.737Z,29.10
2023-05-12T13:44:13.523Z,29.10
2023-05-12T13:46:40.284Z,29.10
2023-05-12T13:49:07.052Z,29.40
2023-05-12T13:51:33.770Z,29.50
2023-05-12T13:54:00.589Z,29.70
2023-05-12T13:56:27.328Z,29.90
2023-05-12T13:58:54.083Z,30.10
2023-05-12T14:01:20.871Z,30.30
2023-05-12T14:03:47.786Z,30.30
2023-05-12T14:06:16.365Z,30.10
2023-05-12T14:08:43.042Z,30.00
2023-05-12T14:11:09.896Z,30.10
2023-05-12T14:13:36.733Z,30.20
2023-05-12T14:16:03.781Z,30.10
2023-05-12T14:18:30.603Z,29.90
2023-05-12T14:20:57.622Z,29.80
2023-05-12T14:23:25.430Z,29.90
2023-05-12T14:25:52.244Z,30.10
2023-05-12T14:28:19.002Z,30.20
2023-05-12T14:30:45.873Z,30.30
2023-05-12T14:33:12.671Z,30.30
2023-05-12T14:35:40.904Z,30.30
2023-05-12T14:38:08.953Z,30.40
2023-05-12T14:40:36.811Z,30.20
2023-05-12T14:43:05.962Z,30.40
2023-05-12T14:45:33.870Z,30.00
2023-05-12T14:48:00.756Z,29.90
2023-05-12T14:50:27.564Z,30.00
2023-05-12T14:52:54.214Z,29.90
2023-05-12T14:55:21.343Z,29.70
2023-05-12T14:57:49.008Z,29.60
2023-05-12T15:00:16.085Z,29.50
2023-05-12T15:02:44.611Z,29.40
2023-05-12T15:05:12.527Z,29.40
2023-05-12T15:07:39.454Z,29.30
2023-05-12T15:10:06.968Z,29.40
2023-05-12T15:12:34.527Z,29.50
2023-05-12T15:15:02.749Z,29.50
2023-05-12T15:17:29.560Z,29.50
2023-05-12T15:19:59.834Z,29.40
2023-05-12T15:22:30.308Z,29.40
2023-05-12T15:25:07.429Z,29.20
2023-05-12T15:27:36.863Z,29.20
2023-05-12T15:30:04.522Z,29.10
2023-05-12T15:32:33.796Z,29.00
2023-05-12T15:35:00.552Z,29.10
2023-05-12T15:37:27.304Z,29.20
2023-05-12T15:39:54.151Z,29.00
2023-05-12T15:42:26.174Z,28.80
2023-05-12T15:44:56.637Z,28.50
2023-05-12T15:47:23.490Z,28.10
2023-05-12T15:49:50.248Z,27.60
2023-05-12T15:52:16.950Z,27.20
2023-05-12T15:54:43.648Z,26.80
2023-05-12T15:57:10.356Z,26.70
2023-05-12T15:59:37.118Z,26.80
2023-05-12T16:02:05.310Z,26.90
2023-05-12T16:04:33.599Z,27.00
2023-05-12T16:07:00.357Z,27.00
2023-05-12T16:09:28.319Z,26.90
2023-05-12T16:11:56.002Z,27.00
2023-05-12T16:14:26.845Z,27.00
2023-05-12T16:16:56.451Z,26.90
2023-05-12T16:22:05.185Z,27.20
2023-05-12T16:24:35.471Z,27.20
2023-05-12T16:27:03.554Z,27.20
2023-05-12T16:29:33.528Z,27.30
2023-05-12T16:32:00.444Z,27.20
2023-05-12T16:34:27.210Z,27.10
2023-05-12T16:36:54.127Z,27.00
2023-05-12T16:39:20.941Z,27.10
2023-05-12T16:41:47.932Z,27.00
2023-05-12T16:44:14.628Z,27.00
2023-05-12T16:46:41.790Z,26.80
2023-05-12T16:49:08.859Z,26.80
2023-05-12T16:51:35.679Z,26.60
2023-05-12T16:54:02.490Z,26.50
2023-05-12T16:56:29.264Z,26.40
2023-05-12T16:58:55.966Z,26.40
2023-05-12T17:01:25.151Z,26.30
2023-05-12T17:03:51.949Z,26.10
2023-05-12T17:06:18.841Z,26.00
2023-05-12T17:08:47.104Z,25.80
2023-05-12T17:11:16.568Z,25.70
2023-05-12T17:13:43.366Z,25.70
2023-05-12T17:16:10.116Z,25.60
2023-05-12T17:21:06.508Z,25.50
2023-05-12T17:23:33.180Z,25.40
2023-05-12T17:26:01.403Z,25.30
2023-05-12T17:28:28.166Z,25.20
2023-05-12T17:30:54.837Z,25.20
2023-05-12T17:33:25.427Z,25.10
2023-05-12T17:38:29.210Z,25.00
2023-05-12T17:40:56.090Z,24.80
2023-05-12T17:43:23.537Z,24.80
2023-05-12T17:45:50.244Z,24.70
2023-05-12T17:48:19.144Z,24.50
2023-05-12T17:50:47.076Z,24.50
2023-05-12T17:53:26.402Z,24.30
2023-05-12T17:55:55.728Z,24.10
2023-05-12T17:58:22.654Z,24.00
2023-05-12T18:00:50.828Z,23.80
2023-05-12T18:03:24.708Z,23.70
2023-05-12T18:06:05.656Z,23.50
2023-05-12T18:08:36.058Z,23.40
2023-05-12T18:11:06.144Z,23.30
2023-05-12T18:13:33.889Z,23.10
2023-05-12T18:16:02.025Z,23.00
2023-05-12T18:18:32.959Z,22.80
2023-05-12T18:21:01.149Z,22.80
2023-05-12T18:23:31.632Z,22.60
2023-05-12T18:26:01.799Z,22.40
2023-05-12T18:28:29.025Z,22.30
2023-05-12T18:30:58.039Z,22.00
2023-05-12T18:33:29.957Z,21.90
2023-05-12T18:36:00.004Z,21.80
2023-05-12T18:38:27.101Z,21.60
2023-05-12T18:40:54.132Z,21.50
2023-05-12T18:43:23.874Z,21.30
2023-05-12T18:45:53.280Z,21.20
2023-05-12T18:48:20.092Z,21.10
2023-05-12T18:50:51.523Z,20.90
2023-05-12T18:53:18.312Z,20.90
2023-05-12T18:55:45.453Z,20.80
2023-05-12T18:58:14.548Z,20.70
2023-05-12T19:00:41.332Z,20.60
2023-05-12T19:03:08.110Z,20.50
2023-05-12T19:05:35.231Z,20.50
2023-05-12T19:08:02.257Z,20.30
2023-05-12T19:10:30.058Z,20.30
2023-05-12T19:12:59.187Z,20.20
2023-05-12T19:15:29.338Z,20.10
2023-05-12T19:18:04.475Z,20.00
2023-05-12T19:20:37.223Z,19.90
2023-05-12T19:23:04.396Z,19.80
2023-05-12T19:25:33.881Z,19.80
2023-05-12T19:28:00.600Z,19.80
2023-05-12T19:31:01.359Z,19.70
2023-05-12T19:33:29.528Z,19.60
2023-05-12T19:35:58.528Z,19.50
2023-05-12T19:38:27.796Z,19.40
2023-05-12T19:40:56.121Z,19.30
2023-05-12T19:43:26.765Z,19.20
2023-05-12T19:46:02.125Z,19.20
2023-05-12T19:48:36.099Z,19.10
2023-05-12T19:51:33.201Z,19.10
2023-05-12T19:54:00.080Z,19.00
2023-05-12T19:56:29.454Z,19.00
2023-05-12T19:58:56.186Z,18.90
2023-05-12T20:01:22.947Z,18.90
2023-05-12T20:03:53.045Z,18.80
2023-05-12T20:06:20.100Z,18.80
2023-05-12T20:08:47.549Z,18.70
2023-05-12T20:11:16.474Z,18.70
2023-05-12T20:13:43.541Z,18.60
2023-05-12T20:16:11.440Z,18.60
2023-05-12T20:18:38.271Z,18.60
2023-05-12T20:21:07.926Z,18.50
2023-05-12T20:23:37.490Z,18.50
2023-05-12T20:26:13.266Z,18.50
2023-05-12T20:28:40.046Z,18.50
2023-05-12T20:31:10.366Z,18.40
2023-05-12T20:33:37.458Z,18.40
2023-05-12T20:36:05.664Z,18.30
2023-05-12T20:38:33.100Z,18.20
2023-05-12T20:41:07.017Z,18.30
2023-05-12T20:43:35.016Z,18.20
2023-05-12T20:46:05.922Z,18.20
2023-05-12T20:48:32.855Z,18.10
2023-05-12T20:50:59.605Z,18.10
2023-05-12T20:53:29.592Z,18.10
2023-05-12T20:55:56.273Z,18.00
2023-05-12T20:58:22.980Z,18.00
2023-05-12T21:00:49.749Z,17.90
2023-05-12T21:03:16.494Z,17.90
2023-05-12T21:05:43.243Z,17.90
2023-05-12T21:08:09.993Z,17.80
2023-05-12T21:10:38.376Z,17.80
2023-05-12T21:13:05.084Z,17.80
2023-05-12T21:15:32.036Z,17.70
2023-05-12T21:18:00.517Z,17.70
2023-05-12T21:20:27.321Z,17.70
2023-05-12T21:23:04.259Z,17.60
2023-05-12T21:25:33.077Z,17.50
2023-05-12T21:28:01.017Z,17.50
2023-05-12T21:30:29.932Z,17.50
2023-05-12T21:32:56.843Z,17.50
2023-05-12T21:35:23.753Z,17.50
2023-05-12T21:37:50.486Z,17.40
2023-05-12T21:40:17.338Z,17.40
2023-05-12T21:42:44.088Z,17.30
2023-05-12T21:45:10.856Z,17.30
2023-05-12T21:47:37.620Z,17.30
2023-05-12T21:50:04.631Z,17.20
2023-05-12T21:52:31.426Z,17.10
2023-05-12T21:55:01.811Z,17.20
2023-05-12T21:57:28.523Z,17.10
2023-05-12T21:59:55.247Z,17.10
2023-05-12T22:02:22.105Z,17.00
2023-05-12T22:04:48.838Z,16.90
2023-05-12T22:07:15.623Z,16.90
2023-05-12T22:09:42.557Z,16.80
2023-05-12T22:12:09.896Z,16.80
2023-05-12T22:14:36.638Z,16.80
2023-05-12T22:17:03.519Z,16.70
2023-05-12T22:19:31.066Z,16.70
2023-05-12T22:21:58.999Z,16.70
2023-05-12T22:24:25.911Z,16.70
2023-05-12T22:26:53.873Z,16.60
2023-05-12T22:29:20.777Z,16.60
2023-05-12T22:31:47.527Z,16.60
2023-05-12T22:34:21.980Z,16.60
2023-05-12T22:36:49.076Z,16.50
2023-05-12T22:39:15.796Z,16.40
2023-05-12T22:41:42.473Z,16.40
2023-05-12T22:44:09.308Z,16.30
2023-05-12T22:46:36.048Z,16.30
2023-05-12T22:49:02.726Z,16.30
2023-05-12T22:51:29.420Z,16.30
2023-05-12T22:53:56.106Z,16.30
2023-05-12T22:56:22.982Z,16.30
2023-05-12T22:58:49.794Z,16.30
2023-05-12T23:01:20.348Z,16.30
2023-05-12T23:03:49.347Z,16.20
2023-05-12T23:06:17.337Z,16.20
2023-05-12T23:08:48.698Z,16.20
2023-05-12T23:11:15.618Z,16.10
2023-05-12T23:13:42.435Z,16.10
2023-05-12T23:16:09.272Z,16.10
2023-05-12T23:18:36.128Z,16.00
2023-05-12T23:21:02.917Z,15.90
2023-05-12T23:23:29.605Z,15.90
2023-05-12T23:25:56.346Z,15.90
2023-05-12T23:28:23.013Z,15.90
2023-05-12T23:30:51.043Z,15.80
2023-05-12T23:33:17.825Z,15.80
2023-05-12T23:35:44.676Z,15.80
2023-05-12T23:38:11.316Z,15.80
2023-05-12T23:40:38.041Z,15.70
2023-05-12T23:43:05.851Z,15.70
2023-05-12T23:45:33.296Z,15.60
2023-05-12T23:48:00.344Z,15.60
2023-05-12T23:50:27.364Z,15.60
2023-05-12T23:52:54.101Z,15.50
2023-05-12T23:55:21.614Z,15.50
2023-05-12T23:57:48.890Z,15.50
